sensor_id;sensor_type;location;lat;lon;timestamp;P1;durP1;ratioP1;P2;durP2;ratioP2
9801;SDS011;4940;50.900;4.672;2024-02-28T00:00:00;57.42;;;52.17;;
9801;SDS011;4940;50.900;4.672;2024-02-28T00:02:30;53.33;;;48.10;;
9801;SDS011;4940;50.900;4.672;2024-02-28T00:04:57;52.88;;;47.90;;
9801;SDS011;4940;50.900;4.672;2024-02-28T00:07:25;49.92;;;45.03;;
9801;SDS011;4940;50.900;4.672;2024-02-28T00:09:52;51.20;;;46.40;;
9801;SDS011;4940;50.900;4.672;2024-02-28T00:12:22;48.97;;;44.22;;
9801;SDS011;4940;50.900;4.672;2024-02-28T00:14:51;51.03;;;46.25;;
9801;SDS011;4940;50.900;4.672;2024-02-28T00:17:18;49.90;;;45.10;;
9801;SDS011;4940;50.900;4.672;2024-02-28T00:19:47;54.73;;;49.33;;
9801;SDS011;4940;50.900;4.672;2024-02-28T00:22:14;53.90;;;48.80;;
9801;SDS011;4940;50.900;4.672;2024-02-28T00:24:42;54.13;;;49.10;;
9801;SDS011;4940;50.900;4.672;2024-02-28T00:27:15;51.85;;;46.85;;
9801;SDS011;4940;50.900;4.672;2024-02-28T00:29:46;52.08;;;47.15;;
9801;SDS011;4940;50.900;4.672;2024-02-28T00:32:36;50.15;;;45.63;;
9801;SDS011;4940;50.900;4.672;2024-02-28T00:35:16;49.90;;;45.38;;
9801;SDS011;4940;50.900;4.672;2024-02-28T00:37:44;49.72;;;45.22;;
9801;SDS011;4940;50.900;4.672;2024-02-28T00:40:12;51.07;;;46.43;;
9801;SDS011;4940;50.900;4.672;2024-02-28T00:42:39;51.60;;;46.70;;
9801;SDS011;4940;50.900;4.672;2024-02-28T00:45:08;49.10;;;44.53;;
9801;SDS011;4940;50.900;4.672;2024-02-28T00:47:35;48.72;;;44.22;;
9801;SDS011;4940;50.900;4.672;2024-02-28T00:50:05;50.72;;;46.20;;
9801;SDS011;4940;50.900;4.672;2024-02-28T00:52:33;52.13;;;47.33;;
9801;SDS011;4940;50.900;4.672;2024-02-28T00:55:00;50.38;;;45.80;;
9801;SDS011;4940;50.900;4.672;2024-02-28T00:57:28;64.35;;;58.72;;
9801;SDS011;4940;50.900;4.672;2024-02-28T00:59:55;61.58;;;56.38;;
9801;SDS011;4940;50.900;4.672;2024-02-28T01:02:23;62.10;;;57.03;;
9801;SDS011;4940;50.900;4.672;2024-02-28T01:04:50;61.88;;;56.42;;
9801;SDS011;4940;50.900;4.672;2024-02-28T01:07:19;62.40;;;57.20;;
9801;SDS011;4940;50.900;4.672;2024-02-28T01:09:46;60.65;;;55.45;;
9801;SDS011;4940;50.900;4.672;2024-02-28T01:12:13;62.83;;;57.40;;
9801;SDS011;4940;50.900;4.672;2024-02-28T01:14:41;65.53;;;59.70;;
9801;SDS011;4940;50.900;4.672;2024-02-28T01:17:08;64.13;;;57.55;;
9801;SDS011;4940;50.900;4.672;2024-02-28T01:19:36;67.32;;;60.35;;
9801;SDS011;4940;50.900;4.672;2024-02-28T01:22:03;66.68;;;59.80;;
9801;SDS011;4940;50.900;4.672;2024-02-28T01:24:32;64.03;;;54.42;;
9801;SDS011;4940;50.900;4.672;2024-02-28T01:26:59;60.50;;;52.85;;
9801;SDS011;4940;50.900;4.672;2024-02-28T01:29:27;57.95;;;51.65;;
9801;SDS011;4940;50.900;4.672;2024-02-28T01:31:55;57.97;;;51.63;;
9801;SDS011;4940;50.900;4.672;2024-02-28T01:34:22;61.03;;;54.40;;
9801;SDS011;4940;50.900;4.672;2024-02-28T01:36:50;62.20;;;55.20;;
9801;SDS011;4940;50.900;4.672;2024-02-28T01:39:17;70.23;;;57.33;;
9801;SDS011;4940;50.900;4.672;2024-02-28T01:41:51;64.33;;;57.27;;
9801;SDS011;4940;50.900;4.672;2024-02-28T01:44:19;68.07;;;58.53;;
9801;SDS011;4940;50.900;4.672;2024-02-28T01:46:46;68.90;;;58.57;;
9801;SDS011;4940;50.900;4.672;2024-02-28T01:49:14;70.87;;;59.23;;
9801;SDS011;4940;50.900;4.672;2024-02-28T01:51:42;69.17;;;59.73;;
9801;SDS011;4940;50.900;4.672;2024-02-28T01:54:12;76.70;;;65.47;;
9801;SDS011;4940;50.900;4.672;2024-02-28T01:56:40;72.73;;;63.50;;
9801;SDS011;4940;50.900;4.672;2024-02-28T01:59:11;79.30;;;60.70;;
9801;SDS011;4940;50.900;4.672;2024-02-28T02:01:38;73.70;;;61.60;;
9801;SDS011;4940;50.900;4.672;2024-02-28T02:04:06;72.10;;;60.63;;
9801;SDS011;4940;50.900;4.672;2024-02-28T02:06:33;72.93;;;58.67;;
9801;SDS011;4940;50.900;4.672;2024-02-28T02:09:05;79.57;;;61.63;;
9801;SDS011;4940;50.900;4.672;2024-02-28T02:11:32;71.77;;;61.17;;
9801;SDS011;4940;50.900;4.672;2024-02-28T02:14:01;78.70;;;59.67;;
9801;SDS011;4940;50.900;4.672;2024-02-28T02:16:30;73.67;;;60.93;;
9801;SDS011;4940;50.900;4.672;2024-02-28T02:18:57;76.87;;;63.67;;
9801;SDS011;4940;50.900;4.672;2024-02-28T02:21:26;81.70;;;62.00;;
9801;SDS011;4940;50.900;4.672;2024-02-28T02:23:58;82.87;;;61.53;;
9801;SDS011;4940;50.900;4.672;2024-02-28T02:26:25;78.73;;;65.07;;
9801;SDS011;4940;50.900;4.672;2024-02-28T02:28:52;80.63;;;62.73;;
9801;SDS011;4940;50.900;4.672;2024-02-28T02:31:20;80.93;;;65.73;;
9801;SDS011;4940;50.900;4.672;2024-02-28T02:33:47;73.37;;;60.33;;
9801;SDS011;4940;50.900;4.672;2024-02-28T02:36:14;70.50;;;62.10;;
9801;SDS011;4940;50.900;4.672;2024-02-28T02:38:42;79.07;;;70.53;;
9801;SDS011;4940;50.900;4.672;2024-02-28T02:41:11;82.77;;;68.27;;
9801;SDS011;4940;50.900;4.672;2024-02-28T02:43:38;84.55;;;73.55;;
9801;SDS011;4940;50.900;4.672;2024-02-28T02:46:06;85.33;;;75.87;;
9801;SDS011;4940;50.900;4.672;2024-02-28T02:48:33;88.30;;;78.67;;
9801;SDS011;4940;50.900;4.672;2024-02-28T02:51:00;89.40;;;79.73;;
9801;SDS011;4940;50.900;4.672;2024-02-28T02:53:27;91.07;;;79.90;;
9801;SDS011;4940;50.900;4.672;2024-02-28T02:55:55;91.53;;;81.97;;
9801;SDS011;4940;50.900;4.672;2024-02-28T02:58:24;86.03;;;76.93;;
9801;SDS011;4940;50.900;4.672;2024-02-28T03:00:51;80.97;;;72.33;;
9801;SDS011;4940;50.900;4.672;2024-02-28T03:03:18;86.30;;;74.30;;
9801;SDS011;4940;50.900;4.672;2024-02-28T03:05:46;79.87;;;64.03;;
9801;SDS011;4940;50.900;4.672;2024-02-28T03:08:13;76.93;;;59.33;;
9801;SDS011;4940;50.900;4.672;2024-02-28T03:10:41;80.60;;;60.05;;
9801;SDS011;4940;50.900;4.672;2024-02-28T03:13:09;87.97;;;63.47;;
9801;SDS011;4940;50.900;4.672;2024-02-28T03:15:37;80.20;;;64.13;;
9801;SDS011;4940;50.900;4.672;2024-02-28T03:18:05;81.03;;;64.07;;
9801;SDS011;4940;50.900;4.672;2024-02-28T03:20:32;80.07;;;62.97;;
9801;SDS011;4940;50.900;4.672;2024-02-28T03:23:02;79.10;;;60.53;;
9801;SDS011;4940;50.900;4.672;2024-02-28T03:25:30;72.33;;;58.47;;
9801;SDS011;4940;50.900;4.672;2024-02-28T03:27:59;76.17;;;61.13;;
9801;SDS011;4940;50.900;4.672;2024-02-28T03:30:26;78.40;;;60.33;;
9801;SDS011;4940;50.900;4.672;2024-02-28T03:32:55;71.97;;;58.73;;
9801;SDS011;4940;50.900;4.672;2024-02-28T03:35:22;79.87;;;61.27;;
9801;SDS011;4940;50.900;4.672;2024-02-28T03:37:50;85.53;;;62.50;;
9801;SDS011;4940;50.900;4.672;2024-02-28T03:40:17;69.87;;;59.57;;
9801;SDS011;4940;50.900;4.672;2024-02-28T03:42:44;77.97;;;60.08;;
9801;SDS011;4940;50.900;4.672;2024-02-28T03:45:12;77.45;;;61.10;;
9801;SDS011;4940;50.900;4.672;2024-02-28T03:47:39;77.95;;;62.42;;
9801;SDS011;4940;50.900;4.672;2024-02-28T03:50:08;79.63;;;62.33;;
9801;SDS011;4940;50.900;4.672;2024-02-28T03:52:36;77.50;;;61.23;;
9801;SDS011;4940;50.900;4.672;2024-02-28T03:55:03;80.27;;;62.20;;
9801;SDS011;4940;50.900;4.672;2024-02-28T03:57:31;80.43;;;59.47;;
9801;SDS011;4940;50.900;4.672;2024-02-28T03:59:58;83.73;;;62.40;;
9801;SDS011;4940;50.900;4.672;2024-02-28T04:02:27;80.97;;;63.00;;
9801;SDS011;4940;50.900;4.672;2024-02-28T04:04:55;81.23;;;64.07;;
9801;SDS011;4940;50.900;4.672;2024-02-28T04:07:23;75.80;;;61.20;;
9801;SDS011;4940;50.900;4.672;2024-02-28T04:09:51;76.43;;;62.30;;
9801;SDS011;4940;50.900;4.672;2024-02-28T04:12:17;76.00;;;61.23;;
9801;SDS011;4940;50.900;4.672;2024-02-28T04:14:45;81.33;;;59.97;;
9801;SDS011;4940;50.900;4.672;2024-02-28T04:17:12;77.05;;;55.20;;
9801;SDS011;4940;50.900;4.672;2024-02-28T04:19:40;76.37;;;60.63;;
9801;SDS011;4940;50.900;4.672;2024-02-28T04:22:07;81.83;;;59.70;;
9801;SDS011;4940;50.900;4.672;2024-02-28T04:24:36;79.43;;;63.63;;
9801;SDS011;4940;50.900;4.672;2024-02-28T04:27:03;83.13;;;59.90;;
9801;SDS011;4940;50.900;4.672;2024-02-28T04:29:31;84.07;;;62.07;;
9801;SDS011;4940;50.900;4.672;2024-02-28T04:31:58;77.97;;;62.20;;
9801;SDS011;4940;50.900;4.672;2024-02-28T04:34:25;86.90;;;66.20;;
9801;SDS011;4940;50.900;4.672;2024-02-28T04:36:53;75.97;;;63.50;;
9801;SDS011;4940;50.900;4.672;2024-02-28T04:39:20;75.07;;;65.33;;
9801;SDS011;4940;50.900;4.672;2024-02-28T04:41:49;78.10;;;68.03;;
9801;SDS011;4940;50.900;4.672;2024-02-28T04:44:16;90.07;;;72.63;;
9801;SDS011;4940;50.900;4.672;2024-02-28T04:46:43;88.33;;;78.70;;
9801;SDS011;4940;50.900;4.672;2024-02-28T04:49:11;88.03;;;78.47;;
9801;SDS011;4940;50.900;4.672;2024-02-28T04:51:38;87.93;;;72.33;;
9801;SDS011;4940;50.900;4.672;2024-02-28T04:54:06;75.00;;;64.03;;
9801;SDS011;4940;50.900;4.672;2024-02-28T04:56:33;79.73;;;64.03;;
9801;SDS011;4940;50.900;4.672;2024-02-28T04:59:07;88.53;;;67.60;;
9801;SDS011;4940;50.900;4.672;2024-02-28T05:01:34;85.00;;;65.33;;
9801;SDS011;4940;50.900;4.672;2024-02-28T05:04:04;71.70;;;60.23;;
9801;SDS011;4940;50.900;4.672;2024-02-28T05:06:31;77.20;;;59.60;;
9801;SDS011;4940;50.900;4.672;2024-02-28T05:08:59;75.77;;;62.13;;
9801;SDS011;4940;50.900;4.672;2024-02-28T05:11:26;84.57;;;66.27;;
9801;SDS011;4940;50.900;4.672;2024-02-28T05:13:54;75.87;;;67.13;;
9801;SDS011;4940;50.900;4.672;2024-02-28T05:16:22;76.80;;;66.10;;
9801;SDS011;4940;50.900;4.672;2024-02-28T05:18:50;83.97;;;69.30;;
9801;SDS011;4940;50.900;4.672;2024-02-28T05:21:17;73.90;;;64.50;;
9801;SDS011;4940;50.900;4.672;2024-02-28T05:23:44;77.90;;;69.53;;
9801;SDS011;4940;50.900;4.672;2024-02-28T05:26:12;76.37;;;64.73;;
9801;SDS011;4940;50.900;4.672;2024-02-28T05:28:39;80.67;;;67.93;;
9801;SDS011;4940;50.900;4.672;2024-02-28T05:31:18;76.00;;;64.77;;
9801;SDS011;4940;50.900;4.672;2024-02-28T05:33:48;79.50;;;69.00;;
9801;SDS011;4940;50.900;4.672;2024-02-28T05:36:15;81.83;;;62.60;;
9801;SDS011;4940;50.900;4.672;2024-02-28T05:38:43;70.63;;;61.23;;
9801;SDS011;4940;50.900;4.672;2024-02-28T05:41:11;77.57;;;63.97;;
9801;SDS011;4940;50.900;4.672;2024-02-28T05:43:39;80.00;;;67.60;;
9801;SDS011;4940;50.900;4.672;2024-02-28T05:46:07;78.67;;;70.17;;
9801;SDS011;4940;50.900;4.672;2024-02-28T05:48:34;78.40;;;69.97;;
9801;SDS011;4940;50.900;4.672;2024-02-28T05:51:03;77.20;;;68.28;;
9801;SDS011;4940;50.900;4.672;2024-02-28T05:53:31;80.37;;;68.07;;
9801;SDS011;4940;50.900;4.672;2024-02-28T05:56:01;86.50;;;77.77;;
9801;SDS011;4940;50.900;4.672;2024-02-28T05:58:28;83.00;;;69.13;;
9801;SDS011;4940;50.900;4.672;2024-02-28T06:00:56;78.50;;;66.07;;
9801;SDS011;4940;50.900;4.672;2024-02-28T06:03:23;73.47;;;65.07;;
9801;SDS011;4940;50.900;4.672;2024-02-28T06:05:50;74.03;;;58.43;;
9801;SDS011;4940;50.900;4.672;2024-02-28T06:08:19;70.60;;;60.57;;
9801;SDS011;4940;50.900;4.672;2024-02-28T06:10:46;71.03;;;61.70;;
9801;SDS011;4940;50.900;4.672;2024-02-28T06:13:14;64.17;;;54.73;;
9801;SDS011;4940;50.900;4.672;2024-02-28T06:15:41;70.93;;;63.07;;
9801;SDS011;4940;50.900;4.672;2024-02-28T06:18:09;74.77;;;62.80;;
9801;SDS011;4940;50.900;4.672;2024-02-28T06:20:36;80.83;;;64.20;;
9801;SDS011;4940;50.900;4.672;2024-02-28T06:23:04;75.77;;;60.37;;
9801;SDS011;4940;50.900;4.672;2024-02-28T06:25:33;84.30;;;63.30;;
9801;SDS011;4940;50.900;4.672;2024-02-28T06:28:00;77.27;;;58.70;;
9801;SDS011;4940;50.900;4.672;2024-02-28T06:30:30;75.47;;;59.43;;
9801;SDS011;4940;50.900;4.672;2024-02-28T06:32:58;82.57;;;61.27;;
9801;SDS011;4940;50.900;4.672;2024-02-28T06:35:26;70.47;;;60.17;;
9801;SDS011;4940;50.900;4.672;2024-02-28T06:37:54;76.47;;;59.17;;
9801;SDS011;4940;50.900;4.672;2024-02-28T06:40:21;75.00;;;61.50;;
9801;SDS011;4940;50.900;4.672;2024-02-28T06:42:50;84.87;;;71.43;;
9801;SDS011;4940;50.900;4.672;2024-02-28T06:45:17;83.80;;;73.13;;
9801;SDS011;4940;50.900;4.672;2024-02-28T06:47:45;89.13;;;73.83;;
9801;SDS011;4940;50.900;4.672;2024-02-28T06:50:12;85.50;;;71.63;;
9801;SDS011;4940;50.900;4.672;2024-02-28T06:52:40;84.90;;;69.60;;
9801;SDS011;4940;50.900;4.672;2024-02-28T06:55:08;95.83;;;71.20;;
9801;SDS011;4940;50.900;4.672;2024-02-28T06:57:36;96.77;;;75.27;;
9801;SDS011;4940;50.900;4.672;2024-02-28T07:00:09;96.90;;;73.40;;
9801;SDS011;4940;50.900;4.672;2024-02-28T07:02:41;91.10;;;73.20;;
9801;SDS011;4940;50.900;4.672;2024-02-28T07:05:09;93.77;;;76.13;;
9801;SDS011;4940;50.900;4.672;2024-02-28T07:07:36;97.27;;;77.80;;
9801;SDS011;4940;50.900;4.672;2024-02-28T07:10:04;94.17;;;78.10;;
9801;SDS011;4940;50.900;4.672;2024-02-28T07:12:31;93.00;;;76.87;;
9801;SDS011;4940;50.900;4.672;2024-02-28T07:14:59;91.32;;;78.72;;
9801;SDS011;4940;50.900;4.672;2024-02-28T07:17:27;100.50;;;77.50;;
9801;SDS011;4940;50.900;4.672;2024-02-28T07:19:54;90.97;;;73.88;;
9801;SDS011;4940;50.900;4.672;2024-02-28T07:22:22;89.72;;;74.60;;
9801;SDS011;4940;50.900;4.672;2024-02-28T07:24:50;90.97;;;75.93;;
9801;SDS011;4940;50.900;4.672;2024-02-28T07:27:17;87.97;;;73.60;;
9801;SDS011;4940;50.900;4.672;2024-02-28T07:29:45;85.80;;;73.17;;
9801;SDS011;4940;50.900;4.672;2024-02-28T07:32:12;91.72;;;76.57;;
9801;SDS011;4940;50.900;4.672;2024-02-28T07:34:41;96.63;;;78.38;;
9801;SDS011;4940;50.900;4.672;2024-02-28T07:37:08;89.25;;;78.90;;
9801;SDS011;4940;50.900;4.672;2024-02-28T07:39:37;85.83;;;74.00;;
9801;SDS011;4940;50.900;4.672;2024-02-28T07:42:05;92.22;;;74.95;;
9801;SDS011;4940;50.900;4.672;2024-02-28T07:44:32;94.13;;;78.03;;
9801;SDS011;4940;50.900;4.672;2024-02-28T07:46:59;92.33;;;77.63;;
9801;SDS011;4940;50.900;4.672;2024-02-28T07:49:27;90.75;;;78.18;;
9801;SDS011;4940;50.900;4.672;2024-02-28T07:51:55;97.70;;;80.37;;
9801;SDS011;4940;50.900;4.672;2024-02-28T07:54:24;95.70;;;79.53;;
9801;SDS011;4940;50.900;4.672;2024-02-28T07:56:51;101.65;;;81.55;;
9801;SDS011;4940;50.900;4.672;2024-02-28T07:59:19;92.57;;;77.30;;
9801;SDS011;4940;50.900;4.672;2024-02-28T08:01:46;86.75;;;72.80;;
9801;SDS011;4940;50.900;4.672;2024-02-28T08:04:14;91.18;;;78.93;;
9801;SDS011;4940;50.900;4.672;2024-02-28T08:06:41;90.97;;;79.07;;
9801;SDS011;4940;50.900;4.672;2024-02-28T08:11:50;104.95;;;77.65;;
9801;SDS011;4940;50.900;4.672;2024-02-28T08:14:17;85.72;;;68.70;;
9801;SDS011;4940;50.900;4.672;2024-02-28T08:16:45;89.22;;;70.55;;
9801;SDS011;4940;50.900;4.672;2024-02-28T08:19:12;83.97;;;73.53;;
9801;SDS011;4940;50.900;4.672;2024-02-28T08:21:39;91.40;;;72.45;;
9801;SDS011;4940;50.900;4.672;2024-02-28T08:24:07;93.85;;;74.25;;
9801;SDS011;4940;50.900;4.672;2024-02-28T08:26:34;91.63;;;76.38;;
9801;SDS011;4940;50.900;4.672;2024-02-28T08:29:03;94.70;;;81.18;;
9801;SDS011;4940;50.900;4.672;2024-02-28T08:31:31;102.07;;;79.75;;
9801;SDS011;4940;50.900;4.672;2024-02-28T08:34:01;96.47;;;80.32;;
9801;SDS011;4940;50.900;4.672;2024-02-28T08:36:34;96.13;;;81.33;;
9801;SDS011;4940;50.900;4.672;2024-02-28T08:39:02;104.18;;;79.20;;
9801;SDS011;4940;50.900;4.672;2024-02-28T08:41:31;94.05;;;77.07;;
9801;SDS011;4940;50.900;4.672;2024-02-28T08:43:59;93.07;;;76.55;;
9801;SDS011;4940;50.900;4.672;2024-02-28T08:46:28;96.80;;;85.88;;
9801;SDS011;4940;50.900;4.672;2024-02-28T08:48:55;92.43;;;82.47;;
9801;SDS011;4940;50.900;4.672;2024-02-28T08:51:22;90.25;;;80.13;;
9801;SDS011;4940;50.900;4.672;2024-02-28T08:53:50;90.18;;;80.38;;
9801;SDS011;4940;50.900;4.672;2024-02-28T08:56:19;92.30;;;77.13;;
9801;SDS011;4940;50.900;4.672;2024-02-28T08:58:46;91.75;;;81.75;;
9801;SDS011;4940;50.900;4.672;2024-02-28T09:01:14;91.97;;;82.18;;
9801;SDS011;4940;50.900;4.672;2024-02-28T09:03:42;87.13;;;75.57;;
9801;SDS011;4940;50.900;4.672;2024-02-28T09:06:10;86.38;;;74.93;;
9801;SDS011;4940;50.900;4.672;2024-02-28T09:08:37;88.50;;;77.57;;
9801;SDS011;4940;50.900;4.672;2024-02-28T09:11:05;82.90;;;74.00;;
9801;SDS011;4940;50.900;4.672;2024-02-28T09:13:33;86.05;;;73.20;;
9801;SDS011;4940;50.900;4.672;2024-02-28T09:16:00;81.43;;;72.82;;
9801;SDS011;4940;50.900;4.672;2024-02-28T09:18:28;85.18;;;71.97;;
9801;SDS011;4940;50.900;4.672;2024-02-28T09:20:57;82.00;;;72.57;;
9801;SDS011;4940;50.900;4.672;2024-02-28T09:23:24;85.22;;;72.55;;
9801;SDS011;4940;50.900;4.672;2024-02-28T09:25:51;89.88;;;76.95;;
9801;SDS011;4940;50.900;4.672;2024-02-28T09:28:19;86.50;;;77.00;;
9801;SDS011;4940;50.900;4.672;2024-02-28T09:30:47;88.35;;;75.07;;
9801;SDS011;4940;50.900;4.672;2024-02-28T09:33:15;81.70;;;72.30;;
9801;SDS011;4940;50.900;4.672;2024-02-28T09:35:44;76.78;;;68.13;;
9801;SDS011;4940;50.900;4.672;2024-02-28T09:38:13;81.15;;;69.05;;
9801;SDS011;4940;50.900;4.672;2024-02-28T09:40:40;82.97;;;73.65;;
9801;SDS011;4940;50.900;4.672;2024-02-28T09:43:10;83.13;;;71.03;;
9801;SDS011;4940;50.900;4.672;2024-02-28T09:45:42;75.85;;;65.43;;
9801;SDS011;4940;50.900;4.672;2024-02-28T09:48:09;77.13;;;64.90;;
9801;SDS011;4940;50.900;4.672;2024-02-28T09:50:38;77.13;;;63.58;;
9801;SDS011;4940;50.900;4.672;2024-02-28T09:53:06;75.00;;;63.28;;
9801;SDS011;4940;50.900;4.672;2024-02-28T09:55:34;74.95;;;61.67;;
9801;SDS011;4940;50.900;4.672;2024-02-28T09:58:02;68.93;;;56.53;;
9801;SDS011;4940;50.900;4.672;2024-02-28T10:00:29;77.63;;;63.90;;
9801;SDS011;4940;50.900;4.672;2024-02-28T10:02:58;70.35;;;60.30;;
9801;SDS011;4940;50.900;4.672;2024-02-28T10:05:26;75.22;;;63.63;;
9801;SDS011;4940;50.900;4.672;2024-02-28T10:07:54;70.07;;;62.47;;
9801;SDS011;4940;50.900;4.672;2024-02-28T10:10:22;69.47;;;59.65;;
9801;SDS011;4940;50.900;4.672;2024-02-28T10:12:50;72.00;;;63.38;;
9801;SDS011;4940;50.900;4.672;2024-02-28T10:15:18;73.78;;;61.67;;
9801;SDS011;4940;50.900;4.672;2024-02-28T10:17:47;74.13;;;58.22;;
9801;SDS011;4940;50.900;4.672;2024-02-28T10:20:15;68.07;;;60.28;;
9801;SDS011;4940;50.900;4.672;2024-02-28T10:22:42;69.95;;;60.15;;
9801;SDS011;4940;50.900;4.672;2024-02-28T10:25:09;70.00;;;58.35;;
9801;SDS011;4940;50.900;4.672;2024-02-28T10:27:37;65.97;;;57.80;;
9801;SDS011;4940;50.900;4.672;2024-02-28T10:30:06;64.30;;;57.35;;
9801;SDS011;4940;50.900;4.672;2024-02-28T10:32:34;64.68;;;57.67;;
9801;SDS011;4940;50.900;4.672;2024-02-28T10:35:04;64.45;;;57.50;;
9801;SDS011;4940;50.900;4.672;2024-02-28T10:37:33;63.25;;;56.92;;
9801;SDS011;4940;50.900;4.672;2024-02-28T10:40:01;66.72;;;59.83;;
9801;SDS011;4940;50.900;4.672;2024-02-28T10:42:29;63.80;;;57.13;;
9801;SDS011;4940;50.900;4.672;2024-02-28T10:44:57;64.35;;;57.58;;
9801;SDS011;4940;50.900;4.672;2024-02-28T10:47:40;63.80;;;57.35;;
9801;SDS011;4940;50.900;4.672;2024-02-28T10:50:08;60.03;;;53.65;;
9801;SDS011;4940;50.900;4.672;2024-02-28T10:52:37;60.15;;;53.63;;
9801;SDS011;4940;50.900;4.672;2024-02-28T10:55:09;58.33;;;52.53;;
9801;SDS011;4940;50.900;4.672;2024-02-28T10:57:37;61.92;;;55.75;;
9801;SDS011;4940;50.900;4.672;2024-02-28T11:00:06;61.15;;;55.25;;
9801;SDS011;4940;50.900;4.672;2024-02-28T11:02:34;58.75;;;52.70;;
9801;SDS011;4940;50.900;4.672;2024-02-28T11:05:02;56.45;;;50.88;;
9801;SDS011;4940;50.900;4.672;2024-02-28T11:07:30;56.30;;;50.63;;
9801;SDS011;4940;50.900;4.672;2024-02-28T11:09:57;55.72;;;50.13;;
9801;SDS011;4940;50.900;4.672;2024-02-28T11:12:25;53.85;;;48.65;;
9801;SDS011;4940;50.900;4.672;2024-02-28T11:14:57;53.28;;;47.95;;
9801;SDS011;4940;50.900;4.672;2024-02-28T11:17:28;52.00;;;46.60;;
9801;SDS011;4940;50.900;4.672;2024-02-28T11:19:56;51.85;;;46.60;;
9801;SDS011;4940;50.900;4.672;2024-02-28T11:22:27;54.22;;;48.97;;
9801;SDS011;4940;50.900;4.672;2024-02-28T11:24:59;54.47;;;49.40;;
9801;SDS011;4940;50.900;4.672;2024-02-28T11:27:27;51.17;;;46.42;;
9801;SDS011;4940;50.900;4.672;2024-02-28T11:29:54;50.22;;;45.55;;
9801;SDS011;4940;50.900;4.672;2024-02-28T11:32:24;51.70;;;46.72;;
9801;SDS011;4940;50.900;4.672;2024-02-28T11:34:52;48.42;;;43.78;;
9801;SDS011;4940;50.900;4.672;2024-02-28T11:37:19;47.33;;;42.72;;
9801;SDS011;4940;50.900;4.672;2024-02-28T11:39:48;45.13;;;41.03;;
9801;SDS011;4940;50.900;4.672;2024-02-28T11:42:16;44.58;;;40.58;;
9801;SDS011;4940;50.900;4.672;2024-02-28T11:44:42;46.03;;;41.28;;
9801;SDS011;4940;50.900;4.672;2024-02-28T11:47:10;41.95;;;38.33;;
9801;SDS011;4940;50.900;4.672;2024-02-28T11:49:37;42.35;;;38.70;;
9801;SDS011;4940;50.900;4.672;2024-02-28T11:52:05;45.08;;;41.08;;
9801;SDS011;4940;50.900;4.672;2024-02-28T11:54:32;42.28;;;38.70;;
9801;SDS011;4940;50.900;4.672;2024-02-28T11:57:01;42.17;;;38.28;;
9801;SDS011;4940;50.900;4.672;2024-02-28T11:59:29;43.40;;;39.70;;
9801;SDS011;4940;50.900;4.672;2024-02-28T12:01:56;43.67;;;40.10;;
9801;SDS011;4940;50.900;4.672;2024-02-28T12:04:24;42.15;;;38.45;;
9801;SDS011;4940;50.900;4.672;2024-02-28T12:06:51;45.35;;;41.45;;
9801;SDS011;4940;50.900;4.672;2024-02-28T12:09:19;41.58;;;38.22;;
9801;SDS011;4940;50.900;4.672;2024-02-28T12:11:47;43.70;;;39.83;;
9801;SDS011;4940;50.900;4.672;2024-02-28T12:14:16;44.25;;;40.10;;
9801;SDS011;4940;50.900;4.672;2024-02-28T12:16:43;42.92;;;39.33;;
9801;SDS011;4940;50.900;4.672;2024-02-28T12:19:13;42.90;;;39.20;;
9801;SDS011;4940;50.900;4.672;2024-02-28T12:21:44;43.58;;;39.88;;
9801;SDS011;4940;50.900;4.672;2024-02-28T12:24:11;43.70;;;40.00;;
9801;SDS011;4940;50.900;4.672;2024-02-28T12:26:38;41.03;;;37.47;;
9801;SDS011;4940;50.900;4.672;2024-02-28T12:29:06;41.75;;;38.38;;
9801;SDS011;4940;50.900;4.672;2024-02-28T12:31:36;44.63;;;40.80;;
9801;SDS011;4940;50.900;4.672;2024-02-28T12:34:03;42.30;;;38.75;;
9801;SDS011;4940;50.900;4.672;2024-02-28T12:36:31;44.78;;;41.08;;
9801;SDS011;4940;50.900;4.672;2024-02-28T12:38:59;42.38;;;38.78;;
9801;SDS011;4940;50.900;4.672;2024-02-28T12:41:27;41.20;;;38.17;;
9801;SDS011;4940;50.900;4.672;2024-02-28T12:43:54;41.70;;;38.42;;
9801;SDS011;4940;50.900;4.672;2024-02-28T12:46:22;43.75;;;40.35;;
9801;SDS011;4940;50.900;4.672;2024-02-28T12:48:51;41.53;;;38.33;;
9801;SDS011;4940;50.900;4.672;2024-02-28T12:51:20;40.55;;;37.45;;
9801;SDS011;4940;50.900;4.672;2024-02-28T12:54:02;39.97;;;37.00;;
9801;SDS011;4940;50.900;4.672;2024-02-28T12:56:30;39.53;;;36.45;;
9801;SDS011;4940;50.900;4.672;2024-02-28T12:58:57;40.05;;;37.25;;
9801;SDS011;4940;50.900;4.672;2024-02-28T13:01:24;38.33;;;35.65;;
9801;SDS011;4940;50.900;4.672;2024-02-28T13:03:53;37.80;;;35.30;;
9801;SDS011;4940;50.900;4.672;2024-02-28T13:06:21;38.95;;;36.35;;
9801;SDS011;4940;50.900;4.672;2024-02-28T13:08:48;36.70;;;34.30;;
9801;SDS011;4940;50.900;4.672;2024-02-28T13:11:17;37.22;;;34.58;;
9801;SDS011;4940;50.900;4.672;2024-02-28T13:13:46;37.53;;;34.78;;
9801;SDS011;4940;50.900;4.672;2024-02-28T13:16:13;35.13;;;32.67;;
9801;SDS011;4940;50.900;4.672;2024-02-28T13:18:40;35.03;;;32.13;;
9801;SDS011;4940;50.900;4.672;2024-02-28T13:21:09;34.92;;;32.63;;
9801;SDS011;4940;50.900;4.672;2024-02-28T13:23:37;31.73;;;29.80;;
9801;SDS011;4940;50.900;4.672;2024-02-28T13:26:04;28.30;;;26.67;;
9801;SDS011;4940;50.900;4.672;2024-02-28T13:28:32;30.15;;;28.23;;
9801;SDS011;4940;50.900;4.672;2024-02-28T13:31:00;27.10;;;25.60;;
9801;SDS011;4940;50.900;4.672;2024-02-28T13:33:29;27.73;;;26.00;;
9801;SDS011;4940;50.900;4.672;2024-02-28T13:35:56;26.73;;;25.13;;
9801;SDS011;4940;50.900;4.672;2024-02-28T13:38:26;26.90;;;25.30;;
9801;SDS011;4940;50.900;4.672;2024-02-28T13:40:53;31.48;;;29.45;;
9801;SDS011;4940;50.900;4.672;2024-02-28T13:43:20;32.15;;;30.15;;
9801;SDS011;4940;50.900;4.672;2024-02-28T13:45:48;33.70;;;31.52;;
9801;SDS011;4940;50.900;4.672;2024-02-28T13:48:17;36.05;;;33.58;;
9801;SDS011;4940;50.900;4.672;2024-02-28T13:50:47;34.28;;;32.05;;
9801;SDS011;4940;50.900;4.672;2024-02-28T13:53:14;33.20;;;31.17;;
9801;SDS011;4940;50.900;4.672;2024-02-28T13:55:43;31.98;;;29.83;;
9801;SDS011;4940;50.900;4.672;2024-02-28T13:58:11;27.63;;;25.77;;
9801;SDS011;4940;50.900;4.672;2024-02-28T14:00:39;27.83;;;25.15;;
9801;SDS011;4940;50.900;4.672;2024-02-28T14:03:07;25.80;;;24.40;;
9801;SDS011;4940;50.900;4.672;2024-02-28T14:05:34;27.52;;;25.60;;
9801;SDS011;4940;50.900;4.672;2024-02-28T14:08:02;29.38;;;27.48;;
9801;SDS011;4940;50.900;4.672;2024-02-28T14:10:31;28.35;;;26.60;;
9801;SDS011;4940;50.900;4.672;2024-02-28T14:13:00;27.30;;;25.67;;
9801;SDS011;4940;50.900;4.672;2024-02-28T14:15:28;26.55;;;24.95;;
9801;SDS011;4940;50.900;4.672;2024-02-28T14:17:55;25.77;;;24.27;;
9801;SDS011;4940;50.900;4.672;2024-02-28T14:20:23;25.75;;;24.27;;
9801;SDS011;4940;50.900;4.672;2024-02-28T14:22:51;25.75;;;24.17;;
9801;SDS011;4940;50.900;4.672;2024-02-28T14:25:18;22.88;;;21.38;;
9801;SDS011;4940;50.900;4.672;2024-02-28T14:27:46;23.45;;;21.95;;
9801;SDS011;4940;50.900;4.672;2024-02-28T14:30:15;22.80;;;21.50;;
9801;SDS011;4940;50.900;4.672;2024-02-28T14:32:42;24.35;;;22.95;;
9801;SDS011;4940;50.900;4.672;2024-02-28T14:35:10;25.75;;;24.23;;
9801;SDS011;4940;50.900;4.672;2024-02-28T14:37:38;26.30;;;24.73;;
9801;SDS011;4940;50.900;4.672;2024-02-28T14:40:06;28.73;;;27.00;;
9801;SDS011;4940;50.900;4.672;2024-02-28T14:42:36;27.38;;;25.67;;
9801;SDS011;4940;50.900;4.672;2024-02-28T14:45:04;26.27;;;24.63;;
9801;SDS011;4940;50.900;4.672;2024-02-28T14:47:34;26.88;;;24.98;;
9801;SDS011;4940;50.900;4.672;2024-02-28T14:50:02;24.88;;;23.48;;
9801;SDS011;4940;50.900;4.672;2024-02-28T14:52:29;25.77;;;24.27;;
9801;SDS011;4940;50.900;4.672;2024-02-28T14:54:57;26.30;;;24.60;;